createdAt,value
2018-03-23T00:00:58.073Z,99.99
2018-03-23T00:01:58.077Z,99.99
2018-03-23T00:02:58.078Z,99.99
2018-03-23T00:03:58.080Z,99.99
2018-03-23T00:04:58.066Z,99.99
2018-03-23T00:05:58.596Z,99.99
2018-03-23T00:06:58.597Z,99.99
2018-03-23T00:07:58.070Z,99.99
2018-03-23T00:08:58.075Z,99.99
2018-03-23T00:09:58.075Z,99.99
2018-03-23T00:10:58.075Z,99.99
2018-03-23T00:11:58.091Z,99.99
2018-03-23T00:12:58.070Z,99.99
2018-03-23T00:13:58.074Z,99.99
2018-03-23T00:14:58.071Z,99.99
2018-03-23T00:15:58.082Z,99.99
2018-03-23T00:16:58.078Z,99.99
2018-03-23T00:17:58.078Z,99.99
2018-03-23T00:18:58.072Z,99.99
2018-03-23T00:19:58.073Z,99.99
2018-03-23T00:20:58.085Z,99.99
2018-03-23T00:21:58.098Z,99.99
2018-03-23T00:22:58.071Z,99.99
2018-03-23T00:23:58.062Z,99.99
2018-03-23T00:24:58.068Z,99.99
2018-03-23T00:25:58.070Z,99.99
2018-03-23T00:26:58.066Z,99.99
2018-03-23T00:27:58.066Z,99.99
2018-03-23T00:28:58.602Z,99.99
2018-03-23T00:29:58.070Z,99.99
2018-03-23T00:30:58.601Z,99.99
2018-03-23T00:31:58.099Z,99.99
2018-03-23T00:32:58.075Z,99.99
2018-03-23T00:33:58.069Z,99.99
2018-03-23T00:34:58.073Z,99.99
2018-03-23T00:35:58.072Z,99.99
2018-03-23T00:36:58.066Z,99.99
2018-03-23T00:37:58.066Z,99.99
2018-03-23T00:38:58.063Z,99.99
2018-03-23T00:39:58.061Z,99.99
2018-03-23T00:40:58.068Z,99.99
2018-03-23T00:41:58.069Z,99.99
2018-03-23T00:42:58.079Z,99.99
2018-03-23T00:43:58.068Z,99.99
2018-03-23T00:44:58.058Z,99.99
2018-03-23T00:45:58.067Z,99.99
2018-03-23T00:46:58.066Z,99.99
2018-03-23T00:47:58.061Z,99.99
2018-03-23T00:48:58.075Z,99.99
2018-03-23T00:49:58.063Z,99.99
2018-03-23T00:50:58.068Z,99.99
2018-03-23T00:51:58.068Z,99.99
2018-03-23T00:52:58.608Z,99.99
2018-03-23T00:53:58.054Z,99.99
2018-03-23T00:54:58.066Z,99.99
2018-03-23T00:55:58.079Z,99.99
2018-03-23T00:56:58.086Z,99.99
2018-03-23T00:57:58.067Z,99.99
2018-03-23T00:58:58.070Z,99.99
2018-03-23T00:59:58.067Z,99.99
2018-03-23T01:00:58.070Z,99.99
2018-03-23T01:01:58.066Z,99.99
2018-03-23T01:02:58.141Z,99.99
2018-03-23T01:03:58.071Z,99.99
2018-03-23T01:04:58.068Z,99.99
2018-03-23T01:05:58.052Z,99.99
2018-03-23T01:06:58.063Z,99.99
2018-03-23T01:07:58.064Z,99.99
2018-03-23T01:08:58.067Z,99.99
2018-03-23T01:09:58.062Z,99.99
2018-03-23T01:10:58.062Z,99.99
2018-03-23T01:11:58.066Z,99.99
2018-03-23T01:12:58.064Z,99.99
2018-03-23T01:13:58.063Z,99.99
2018-03-23T01:14:58.062Z,99.99
2018-03-23T01:15:58.123Z,99.99
2018-03-23T01:16:58.067Z,99.99
2018-03-23T01:17:58.064Z,99.99
2018-03-23T01:18:58.061Z,99.99
2018-03-23T01:19:58.065Z,99.99
2018-03-23T01:20:58.065Z,99.99
2018-03-23T01:21:58.062Z,99.99
2018-03-23T01:22:58.065Z,99.99
2018-03-23T01:23:58.059Z,99.99
2018-03-23T01:24:58.061Z,99.99
2018-03-23T01:25:58.063Z,99.99
2018-03-23T01:26:58.062Z,99.99
2018-03-23T01:27:58.062Z,99.99
2018-03-23T01:28:58.120Z,99.99
2018-03-23T01:29:58.088Z,99.99
2018-03-23T01:30:58.071Z,99.99
2018-03-23T01:31:58.077Z,99.99
2018-03-23T01:32:58.062Z,99.99
2018-03-23T01:33:58.060Z,99.99
2018-03-23T01:34:58.063Z,99.99
2018-03-23T01:35:58.064Z,99.99
2018-03-23T01:36:58.063Z,99.99
2018-03-23T01:37:58.060Z,99.99
2018-03-23T01:38:58.065Z,99.99
2018-03-23T01:39:58.066Z,99.99
2018-03-23T01:40:58.054Z,99.99
2018-03-23T01:41:58.057Z,99.99
2018-03-23T01:42:58.060Z,99.99
2018-03-23T01:43:58.059Z,99.99
2018-03-23T01:44:58.065Z,99.99
2018-03-23T01:45:58.054Z,99.99
2018-03-23T01:46:58.087Z,99.99
2018-03-23T01:47:58.062Z,99.99
2018-03-23T01:48:58.061Z,99.99
2018-03-23T01:49:58.057Z,99.99
2018-03-23T01:50:58.074Z,99.99
2018-03-23T01:51:58.057Z,99.99
2018-03-23T01:52:58.080Z,99.99
2018-03-23T01:53:58.058Z,99.99
2018-03-23T01:54:58.056Z,99.99
2018-03-23T01:55:58.062Z,99.99
2018-03-23T01:56:58.062Z,99.99
2018-03-23T01:57:58.058Z,99.99
2018-03-23T01:58:58.057Z,99.99
2018-03-23T01:59:58.156Z,99.99
2018-03-23T02:00:58.083Z,99.99
2018-03-23T02:01:58.061Z,99.99
2018-03-23T02:02:58.055Z,99.99
2018-03-23T02:03:58.058Z,99.99
2018-03-23T02:04:58.053Z,99.99
2018-03-23T02:05:58.056Z,99.99
2018-03-23T02:06:58.048Z,99.99
2018-03-23T02:07:58.067Z,99.99
2018-03-23T02:08:58.059Z,99.99
2018-03-23T02:09:58.063Z,99.99
2018-03-23T02:10:58.051Z,99.99
2018-03-23T02:11:58.062Z,99.99
2018-03-23T02:12:58.158Z,99.99
2018-03-23T02:13:58.057Z,99.99
2018-03-23T02:14:58.054Z,99.99
2018-03-23T02:15:58.061Z,99.99
2018-03-23T02:16:58.057Z,99.99
2018-03-23T02:17:58.058Z,99.99
2018-03-23T02:18:58.061Z,99.99
2018-03-23T02:19:58.066Z,99.99
2018-03-23T02:20:58.052Z,99.99
2018-03-23T02:21:58.051Z,99.99
2018-03-23T02:22:58.052Z,99.99
2018-03-23T02:23:58.056Z,99.99
2018-03-23T02:24:58.058Z,99.99
2018-03-23T02:25:58.628Z,99.99
2018-03-23T02:26:58.052Z,99.99
2018-03-23T02:27:58.057Z,99.99
2018-03-23T02:28:58.051Z,99.99
2018-03-23T02:29:58.061Z,99.99
2018-03-23T02:30:58.064Z,99.99
2018-03-23T02:31:58.048Z,99.99
2018-03-23T02:32:58.051Z,99.99
2018-03-23T02:33:58.068Z,99.99
2018-03-23T02:34:58.046Z,99.99
2018-03-23T02:35:58.049Z,99.99
2018-03-23T02:36:58.056Z,99.99
2018-03-23T02:37:58.051Z,99.99
2018-03-23T02:38:58.044Z,99.99
2018-03-23T02:39:58.041Z,99.99
2018-03-23T02:40:58.052Z,99.99
2018-03-23T02:41:58.048Z,99.99
2018-03-23T02:42:58.046Z,99.99
2018-03-23T02:43:58.097Z,99.99
2018-03-23T02:44:58.043Z,99.99
2018-03-23T02:45:58.042Z,99.99
2018-03-23T02:46:58.051Z,99.99
2018-03-23T02:47:58.057Z,99.99
2018-03-23T02:48:58.042Z,99.99
2018-03-23T02:49:58.040Z,99.99
2018-03-23T02:50:58.047Z,99.99
2018-03-23T02:51:58.043Z,99.99
2018-03-23T02:52:58.041Z,99.99
2018-03-23T02:53:58.041Z,99.99
2018-03-23T02:54:58.055Z,99.99
2018-03-23T02:55:58.042Z,99.99
2018-03-23T02:56:58.633Z,99.99
2018-03-23T02:57:58.034Z,99.99
2018-03-23T02:58:58.035Z,99.99
2018-03-23T02:59:58.042Z,99.99
2018-03-23T03:00:58.040Z,99.99
2018-03-23T03:01:58.042Z,99.99
2018-03-23T03:02:58.047Z,99.99
2018-03-23T03:03:58.037Z,99.99
2018-03-23T03:04:58.046Z,99.99
2018-03-23T03:05:58.034Z,99.99
2018-03-23T03:06:58.052Z,99.99
2018-03-23T03:07:58.023Z,99.99
2018-03-23T03:08:58.042Z,99.99
2018-03-23T03:09:58.634Z,99.99
2018-03-23T03:10:58.036Z,99.99
2018-03-23T03:11:58.032Z,99.99
2018-03-23T03:12:58.042Z,99.99
2018-03-23T03:13:58.032Z,99.99
2018-03-23T03:14:58.027Z,99.99
2018-03-23T03:15:58.029Z,99.99
2018-03-23T03:16:58.038Z,99.99
2018-03-23T03:17:58.034Z,99.99
2018-03-23T03:18:58.033Z,99.99
2018-03-23T03:19:58.031Z,99.99
2018-03-23T03:20:58.035Z,99.99
2018-03-23T03:21:58.035Z,99.99
2018-03-23T03:22:58.034Z,99.99
2018-03-23T03:23:58.034Z,99.99
2018-03-23T03:24:58.029Z,99.99
2018-03-23T03:25:58.639Z,99.99
2018-03-23T03:26:58.035Z,99.99
2018-03-23T03:27:58.108Z,99.99
2018-03-23T03:28:58.032Z,99.99
2018-03-23T03:29:58.019Z,99.99
2018-03-23T03:30:58.026Z,99.99
2018-03-23T03:31:58.029Z,99.99
2018-03-23T03:32:58.035Z,99.99
2018-03-23T03:33:58.040Z,99.99
2018-03-23T03:34:58.026Z,99.99
2018-03-23T03:35:58.032Z,99.99
2018-03-23T03:36:58.033Z,99.99
2018-03-23T03:37:58.030Z,99.99
2018-03-23T03:38:58.023Z,99.99
2018-03-23T03:39:58.028Z,99.99
2018-03-23T03:40:58.646Z,99.99
2018-03-23T03:41:58.023Z,99.99
2018-03-23T03:42:58.016Z,99.99
2018-03-23T03:43:58.030Z,99.99
2018-03-23T03:44:58.021Z,99.99
2018-03-23T03:45:58.023Z,99.99
2018-03-23T03:46:58.021Z,99.99
2018-03-23T03:47:58.025Z,99.99
2018-03-23T03:48:58.027Z,99.99
2018-03-23T03:49:58.021Z,99.99
2018-03-23T03:50:58.031Z,99.99
2018-03-23T03:51:58.019Z,99.99
2018-03-23T03:52:58.034Z,99.99
2018-03-23T03:53:58.647Z,99.99
2018-03-23T03:54:58.025Z,99.99
2018-03-23T03:55:58.024Z,99.99
2018-03-23T03:56:58.027Z,99.99
2018-03-23T03:57:58.021Z,99.99
2018-03-23T03:58:58.027Z,99.99
2018-03-23T03:59:58.013Z,99.99
2018-03-23T04:00:58.006Z,99.99
2018-03-23T04:01:58.024Z,99.99
2018-03-23T04:02:58.026Z,99.99
2018-03-23T04:03:58.021Z,99.99
2018-03-23T04:04:58.013Z,99.99
2018-03-23T04:05:58.015Z,99.99
2018-03-23T04:06:58.647Z,99.99
2018-03-23T04:07:58.016Z,99.99
2018-03-23T04:08:58.006Z,99.99
2018-03-23T04:09:58.023Z,99.99
2018-03-23T04:10:58.024Z,99.99
2018-03-23T04:11:58.016Z,99.99
2018-03-23T04:12:58.012Z,99.99
2018-03-23T04:13:58.008Z,99.99
2018-03-23T04:14:58.013Z,99.99
2018-03-23T04:15:58.013Z,99.99
2018-03-23T04:16:58.013Z,99.99
2018-03-23T04:17:58.007Z,99.99
2018-03-23T04:18:58.019Z,99.99
2018-03-23T04:19:58.011Z,99.99
2018-03-23T04:20:58.037Z,99.99
2018-03-23T04:21:58.033Z,99.99
2018-03-23T04:22:58.011Z,99.99
2018-03-23T04:23:58.016Z,99.99
2018-03-23T04:24:58.019Z,99.99
2018-03-23T04:25:58.007Z,99.99
2018-03-23T04:26:58.013Z,99.99
2018-03-23T04:27:58.008Z,99.99
2018-03-23T04:28:58.016Z,99.99
2018-03-23T04:29:58.007Z,99.99
2018-03-23T04:30:58.004Z,99.99
2018-03-23T04:31:58.011Z,99.99
2018-03-23T04:32:58.010Z,99.99
2018-03-23T04:33:57.997Z,99.99
2018-03-23T04:34:58.009Z,99.99
2018-03-23T04:35:58.007Z,99.99
2018-03-23T04:36:58.018Z,99.99
2018-03-23T04:37:58.119Z,99.99
2018-03-23T04:38:58.011Z,99.99
2018-03-23T04:39:58.006Z,99.99
2018-03-23T04:40:58.005Z,99.99
2018-03-23T04:41:57.998Z,99.99
2018-03-23T04:42:58.012Z,99.99
2018-03-23T04:43:58.003Z,99.99
2018-03-23T04:44:57.998Z,99.99
2018-03-23T04:45:58.003Z,99.99
2018-03-23T04:46:58.018Z,99.99
2018-03-23T04:47:58.008Z,99.99
2018-03-23T04:48:58.040Z,99.99
2018-03-23T04:49:58.008Z,99.99
2018-03-23T04:50:58.015Z,99.99
2018-03-23T04:51:58.009Z,99.99
2018-03-23T04:52:58.012Z,99.99
2018-03-23T04:53:58.007Z,99.99
2018-03-23T04:54:58.010Z,99.99
2018-03-23T04:55:58.039Z,99.99
2018-03-23T04:56:58.010Z,99.99
2018-03-23T04:57:58.016Z,99.99
2018-03-23T04:58:58.004Z,99.99
2018-03-23T04:59:57.998Z,99.99
2018-03-23T05:00:58.011Z,99.99
2018-03-23T05:01:58.006Z,99.99
2018-03-23T05:02:58.006Z,99.99
2018-03-23T05:03:58.012Z,99.99
2018-03-23T05:04:58.005Z,99.99
2018-03-23T05:05:58.002Z,99.99
2018-03-23T05:06:58.011Z,99.99
2018-03-23T05:07:58.024Z,99.99
2018-03-23T05:08:58.002Z,99.99
2018-03-23T05:09:57.997Z,99.99
2018-03-23T05:10:57.993Z,99.99
2018-03-23T05:11:58.007Z,99.99
2018-03-23T05:12:57.991Z,99.99
2018-03-23T05:13:57.999Z,99.99
2018-03-23T05:14:58.007Z,99.99
2018-03-23T05:15:58.002Z,99.99
2018-03-23T05:16:57.998Z,99.99
2018-03-23T05:17:58.003Z,99.99
2018-03-23T05:18:58.663Z,99.99
2018-03-23T05:19:58.000Z,99.99
2018-03-23T05:20:57.997Z,99.99
2018-03-23T05:21:58.003Z,99.99
2018-03-23T05:22:57.995Z,99.99
2018-03-23T05:23:57.990Z,99.99
2018-03-23T05:24:57.990Z,99.99
2018-03-23T05:25:57.997Z,99.99
2018-03-23T05:26:57.988Z,99.99
2018-03-23T05:27:57.991Z,99.99
2018-03-23T05:28:57.996Z,99.99
2018-03-23T05:29:57.990Z,99.99
2018-03-23T05:30:58.006Z,99.99
2018-03-23T05:31:57.990Z,99.99
2018-03-23T05:32:58.008Z,99.99
2018-03-23T05:33:57.992Z,99.99
2018-03-23T05:34:58.000Z,99.99
2018-03-23T05:35:57.988Z,99.99
2018-03-23T05:36:58.002Z,99.99
2018-03-23T05:37:57.990Z,99.99
2018-03-23T05:38:57.993Z,99.99
2018-03-23T05:39:57.994Z,99.99
2018-03-23T05:40:57.993Z,99.99
2018-03-23T05:41:57.993Z,99.99
2018-03-23T05:42:57.992Z,99.99
2018-03-23T05:43:57.990Z,99.99
2018-03-23T05:44:57.993Z,99.99
2018-03-23T05:45:57.991Z,99.99
2018-03-23T05:46:57.997Z,99.99
2018-03-23T05:47:57.991Z,99.99
2018-03-23T05:48:57.998Z,99.99
2018-03-23T05:49:58.000Z,99.99
2018-03-23T05:50:57.995Z,99.99
2018-03-23T05:51:57.995Z,99.99
2018-03-23T05:52:57.999Z,99.99
2018-03-23T05:53:57.998Z,99.99
2018-03-23T05:54:57.996Z,99.99
2018-03-23T05:55:57.988Z,99.99
2018-03-23T05:56:57.991Z,99.99
2018-03-23T05:57:57.992Z,99.99
2018-03-23T05:58:57.994Z,99.99
2018-03-23T05:59:57.986Z,99.99
2018-03-23T06:00:57.985Z,99.99
2018-03-23T06:01:57.977Z,99.99
2018-03-23T06:02:57.985Z,99.99
2018-03-23T06:03:57.996Z,99.99
2018-03-23T06:04:57.984Z,99.99
2018-03-23T06:05:57.980Z,99.99
2018-03-23T06:06:57.987Z,99.99
2018-03-23T06:07:57.986Z,99.99
2018-03-23T06:08:57.980Z,99.99
2018-03-23T06:09:57.990Z,99.99
2018-03-23T06:10:57.997Z,99.99
2018-03-23T06:11:57.986Z,99.99
2018-03-23T06:12:57.988Z,99.99
2018-03-23T06:13:57.986Z,99.99
2018-03-23T06:14:57.984Z,99.99
2018-03-23T06:15:57.982Z,99.99
2018-03-23T06:16:57.983Z,99.99
2018-03-23T06:17:57.984Z,99.99
2018-03-23T06:18:57.988Z,99.99
2018-03-23T06:19:57.991Z,99.99
2018-03-23T06:20:57.988Z,99.99
2018-03-23T06:21:57.983Z,99.99
2018-03-23T06:22:57.983Z,99.99
2018-03-23T06:23:57.984Z,99.99
2018-03-23T06:24:57.982Z,99.99
2018-03-23T06:25:57.989Z,99.99
2018-03-23T06:26:57.981Z,99.99
2018-03-23T06:27:57.982Z,99.99
2018-03-23T06:28:57.977Z,99.99
2018-03-23T06:29:57.984Z,99.99
2018-03-23T06:30:58.016Z,99.99
2018-03-23T06:31:58.010Z,99.99
2018-03-23T06:32:57.988Z,99.99
2018-03-23T06:33:58.038Z,99.99
2018-03-23T06:34:57.982Z,99.99
2018-03-23T06:35:57.985Z,99.99
2018-03-23T06:36:57.979Z,99.99
2018-03-23T06:37:57.976Z,99.99
2018-03-23T06:38:57.970Z,99.99
2018-03-23T06:39:57.977Z,99.99
2018-03-23T06:40:57.981Z,99.99
2018-03-23T06:41:57.974Z,99.99
2018-03-23T06:42:57.974Z,99.99
2018-03-23T06:43:57.977Z,99.99
2018-03-23T06:44:57.980Z,99.99
2018-03-23T06:45:57.970Z,99.99
2018-03-23T06:46:57.977Z,99.99
2018-03-23T06:47:57.975Z,99.99
2018-03-23T06:48:57.980Z,99.99
2018-03-23T06:49:57.985Z,99.99
2018-03-23T06:50:57.981Z,99.99
2018-03-23T06:51:57.979Z,99.99
2018-03-23T06:52:57.984Z,99.99
2018-03-23T06:53:57.975Z,99.99
2018-03-23T06:54:57.980Z,99.99
2018-03-23T06:55:57.977Z,99.99
2018-03-23T06:56:57.989Z,99.99
2018-03-23T06:57:57.985Z,99.99
2018-03-23T06:58:57.979Z,99.99
2018-03-23T06:59:57.961Z,99.99
2018-03-23T07:00:57.979Z,99.99
2018-03-23T07:01:57.978Z,99.99
2018-03-23T07:02:57.973Z,99.99
2018-03-23T07:03:57.976Z,99.99
2018-03-23T07:04:57.991Z,99.99
2018-03-23T07:05:57.969Z,99.99
2018-03-23T07:06:57.986Z,99.99
2018-03-23T07:07:57.974Z,99.99
2018-03-23T07:08:57.975Z,99.99
2018-03-23T07:09:57.980Z,99.99
2018-03-23T07:10:58.024Z,99.99
2018-03-23T07:11:57.985Z,99.99
2018-03-23T07:12:57.974Z,99.99
2018-03-23T07:13:57.973Z,99.99
2018-03-23T07:14:57.974Z,99.99
2018-03-23T07:15:57.983Z,99.99
2018-03-23T07:16:57.970Z,99.99
2018-03-23T07:17:57.960Z,99.99
2018-03-23T07:18:57.978Z,99.99
2018-03-23T07:19:57.972Z,99.99
2018-03-23T07:20:57.976Z,99.99
2018-03-23T07:21:58.043Z,99.99
2018-03-23T07:22:57.972Z,99.99
2018-03-23T07:23:57.971Z,99.99
2018-03-23T07:24:57.983Z,99.99
2018-03-23T07:25:57.969Z,99.99
2018-03-23T07:26:57.979Z,99.99
2018-03-23T07:27:57.974Z,99.99
2018-03-23T07:28:57.962Z,99.99
2018-03-23T07:29:57.966Z,99.99
2018-03-23T07:30:57.985Z,99.99
2018-03-23T07:31:57.980Z,99.99
2018-03-23T07:32:57.981Z,99.99
2018-03-23T07:33:57.968Z,99.99
2018-03-23T07:34:57.974Z,99.99
2018-03-23T07:35:57.971Z,99.99
2018-03-23T07:36:57.964Z,99.99
2018-03-23T07:37:57.969Z,99.99
2018-03-23T07:38:57.979Z,99.99
2018-03-23T07:39:57.981Z,99.99
2018-03-23T07:40:57.979Z,99.99
2018-03-23T07:41:57.979Z,99.99
2018-03-23T07:42:57.982Z,99.99
2018-03-23T07:43:57.974Z,99.99
2018-03-23T07:44:57.971Z,99.99
2018-03-23T07:45:57.982Z,99.99
2018-03-23T07:46:58.009Z,99.99
2018-03-23T07:47:57.986Z,99.99
2018-03-23T07:48:57.983Z,99.99
2018-03-23T07:49:57.969Z,99.99
2018-03-23T07:50:57.992Z,99.99
2018-03-23T07:51:57.970Z,99.99
2018-03-23T07:52:57.990Z,99.99
2018-03-23T07:53:57.982Z,99.99
2018-03-23T07:54:57.970Z,99.99
2018-03-23T07:55:57.974Z,99.99
2018-03-23T07:56:57.965Z,99.99
2018-03-23T07:57:57.967Z,99.99
2018-03-23T07:58:57.976Z,99.99
2018-03-23T07:59:58.027Z,99.99
2018-03-23T08:00:57.996Z,99.99
2018-03-23T08:01:57.965Z,99.99
2018-03-23T08:02:57.991Z,99.99
2018-03-23T08:03:58.006Z,99.99
2018-03-23T08:04:57.976Z,99.99
2018-03-23T08:05:57.979Z,99.99
2018-03-23T08:06:58.022Z,99.99
2018-03-23T08:07:57.972Z,99.99
2018-03-23T08:08:57.985Z,99.99
2018-03-23T08:09:57.968Z,99.99
2018-03-23T08:10:57.970Z,99.99
2018-03-23T08:11:57.985Z,99.99
2018-03-23T08:12:58.090Z,99.99
2018-03-23T08:13:57.980Z,99.99
2018-03-23T08:14:57.969Z,99.99
2018-03-23T08:15:57.977Z,99.99
2018-03-23T08:16:57.985Z,99.99
2018-03-23T08:17:57.982Z,99.99
2018-03-23T08:18:57.979Z,99.99
2018-03-23T08:19:57.970Z,99.99
2018-03-23T08:20:57.983Z,99.99
2018-03-23T08:21:57.984Z,99.99
2018-03-23T08:22:57.978Z,99.99
2018-03-23T08:23:57.979Z,99.99
2018-03-23T08:24:57.970Z,99.99
2018-03-23T08:25:57.986Z,99.99
2018-03-23T08:26:57.978Z,99.99
2018-03-23T08:27:57.979Z,99.99
2018-03-23T08:28:57.989Z,99.99
2018-03-23T08:29:57.980Z,99.99
2018-03-23T08:30:58.703Z,99.99
2018-03-23T08:31:57.984Z,99.99
2018-03-23T08:32:57.984Z,99.99
2018-03-23T08:33:58.065Z,99.99
2018-03-23T08:34:57.986Z,99.99
2018-03-23T08:35:57.990Z,99.99
2018-03-23T08:36:57.986Z,99.99
2018-03-23T08:37:57.999Z,99.99
2018-03-23T08:38:58.014Z,99.99
2018-03-23T08:39:57.982Z,99.99
2018-03-23T08:40:57.985Z,99.99
2018-03-23T08:41:57.982Z,99.99
2018-03-23T08:42:57.989Z,99.99
2018-03-23T08:43:57.989Z,99.99
2018-03-23T08:44:58.037Z,99.99
2018-03-23T08:45:57.987Z,99.99
2018-03-23T08:46:57.979Z,99.99
2018-03-23T08:47:57.994Z,99.99
2018-03-23T08:48:57.994Z,99.99
2018-03-23T08:49:58.003Z,99.99
2018-03-23T08:50:57.987Z,99.99
2018-03-23T08:51:57.993Z,99.99
2018-03-23T08:52:58.711Z,99.99
2018-03-23T08:53:57.989Z,99.99
2018-03-23T08:54:57.991Z,99.99
2018-03-23T08:55:57.985Z,99.99
2018-03-23T08:56:58.028Z,99.99
2018-03-23T08:57:57.999Z,99.99
2018-03-23T08:58:58.003Z,99.99
2018-03-23T08:59:58.060Z,99.99
2018-03-23T09:00:57.982Z,99.99
2018-03-23T09:01:58.029Z,99.99
2018-03-23T09:02:57.998Z,99.99
2018-03-23T09:03:58.001Z,99.99
2018-03-23T09:04:57.997Z,99.99
2018-03-23T09:05:58.004Z,99.99
2018-03-23T09:06:57.984Z,99.99
2018-03-23T09:07:58.166Z,99.99
2018-03-23T09:08:58.011Z,99.99
2018-03-23T09:09:58.096Z,99.99
2018-03-23T09:10:57.997Z,99.99
2018-03-23T09:11:58.717Z,99.99
2018-03-23T09:12:58.010Z,99.99
2018-03-23T09:13:58.008Z,99.99
2018-03-23T09:14:58.006Z,99.99
2018-03-23T09:15:58.005Z,99.99
2018-03-23T09:16:58.022Z,99.99
2018-03-23T09:17:58.721Z,99.99
2018-03-23T09:18:58.002Z,99.99
2018-03-23T09:19:58.009Z,99.99
2018-03-23T09:20:58.011Z,99.99
2018-03-23T09:21:58.009Z,99.99
2018-03-23T09:22:58.014Z,99.99
2018-03-23T09:23:58.007Z,99.99
2018-03-23T09:24:58.015Z,99.99
2018-03-23T09:25:58.004Z,99.99
2018-03-23T09:26:58.018Z,99.99
2018-03-23T09:27:58.015Z,99.99
2018-03-23T09:28:58.005Z,99.99
2018-03-23T09:29:58.015Z,99.99
2018-03-23T09:30:58.110Z,99.99
2018-03-23T09:31:58.009Z,99.99
2018-03-23T09:32:58.023Z,99.99
2018-03-23T09:33:58.014Z,99.99
2018-03-23T09:34:58.005Z,99.99
2018-03-23T09:35:58.027Z,99.99
2018-03-23T09:36:58.019Z,99.99
2018-03-23T09:37:58.030Z,99.99
2018-03-23T09:38:58.028Z,99.99
2018-03-23T09:39:58.022Z,99.99
2018-03-23T09:40:58.020Z,99.99
2018-03-23T09:41:58.021Z,99.89
2018-03-23T09:42:58.026Z,99.41
2018-03-23T09:43:58.081Z,99.89
2018-03-23T09:44:58.042Z,99.99
2018-03-23T09:45:58.030Z,99.99
2018-03-23T09:46:58.024Z,99.99
2018-03-23T09:47:58.035Z,99.99
2018-03-23T09:48:58.396Z,99.99
2018-03-23T09:49:58.038Z,99.99
2018-03-23T09:50:58.037Z,99.99
2018-03-23T09:51:58.726Z,99.99
2018-03-23T09:52:58.033Z,99.99
2018-03-23T09:53:58.145Z,99.99
2018-03-23T09:54:58.054Z,99.99
2018-03-23T09:55:58.046Z,99.99
2018-03-23T09:56:58.095Z,99.99
2018-03-23T09:57:58.044Z,99.99
2018-03-23T09:58:58.041Z,99.99
2018-03-23T09:59:58.052Z,99.99
2018-03-23T10:00:58.060Z,99.99
2018-03-23T10:01:58.078Z,99.99
2018-03-23T10:02:58.055Z,99.99
2018-03-23T10:03:58.160Z,99.99
2018-03-23T10:04:58.057Z,99.99
2018-03-23T10:05:58.057Z,99.99
2018-03-23T10:06:58.056Z,99.99
2018-03-23T10:07:58.073Z,99.99
2018-03-23T10:08:58.063Z,99.99
2018-03-23T10:09:58.062Z,99.99
2018-03-23T10:10:58.064Z,99.99
2018-03-23T10:11:58.180Z,99.99
2018-03-23T10:12:58.081Z,99.99
2018-03-23T10:13:58.060Z,99.99
2018-03-23T10:14:58.098Z,99.55
2018-03-23T10:15:58.072Z,99.99
2018-03-23T10:16:58.070Z,99.93
2018-03-23T10:17:58.142Z,99.99
2018-03-23T10:18:58.071Z,99.99
2018-03-23T10:19:58.081Z,99.99
2018-03-23T10:20:58.141Z,99.65
2018-03-23T10:21:58.082Z,99.99
2018-03-23T10:22:58.088Z,97.65
2018-03-23T10:23:58.077Z,97.65
2018-03-23T10:24:58.079Z,97.08
2018-03-23T10:25:58.078Z,97.46
2018-03-23T10:26:58.078Z,97.55
2018-03-23T10:27:58.147Z,98.41
2018-03-23T10:29:58.089Z,97.60
2018-03-23T10:30:58.095Z,96.98
2018-03-23T10:31:58.151Z,95.46
2018-03-23T10:32:58.098Z,93.89
2018-03-23T10:33:58.100Z,93.70
2018-03-23T10:34:58.110Z,94.70
2018-03-23T10:35:58.099Z,94.13
2018-03-23T10:36:58.112Z,93.84
2018-03-23T10:37:58.095Z,93.37
2018-03-23T10:38:58.104Z,93.37
2018-03-23T10:39:58.107Z,93.22
2018-03-23T10:40:58.754Z,92.27
2018-03-23T10:41:58.098Z,90.89
2018-03-23T10:42:58.110Z,90.89
2018-03-23T10:43:58.132Z,91.55
2018-03-23T10:44:58.120Z,90.56
2018-03-23T10:45:58.115Z,92.94
2018-03-23T10:46:58.111Z,95.03
2018-03-23T10:47:58.104Z,93.27
2018-03-23T10:48:58.124Z,94.37
2018-03-23T10:49:58.124Z,94.27
2018-03-23T10:50:58.156Z,94.65
2018-03-23T10:51:58.132Z,94.46
2018-03-23T10:52:58.356Z,94.03
2018-03-23T10:53:58.139Z,94.03
2018-03-23T10:54:58.146Z,94.22
2018-03-23T10:55:58.748Z,94.22
2018-03-23T10:56:58.165Z,93.74
2018-03-23T10:57:58.139Z,94.08
2018-03-23T10:58:58.751Z,94.17
2018-03-23T10:59:58.143Z,93.79
2018-03-23T11:00:58.139Z,92.84
2018-03-23T11:01:58.140Z,92.18
2018-03-23T11:02:58.142Z,91.51
2018-03-23T11:03:58.148Z,90.79
2018-03-23T11:04:58.152Z,89.75
2018-03-23T11:05:58.154Z,89.36
2018-03-23T11:06:58.156Z,89.89
2018-03-23T11:07:58.153Z,88.84
2018-03-23T11:08:58.163Z,88.69
2018-03-23T11:09:58.155Z,88.21
2018-03-23T11:10:58.162Z,85.45
2018-03-23T11:11:58.222Z,85.35
2018-03-23T11:12:58.175Z,83.96
2018-03-23T11:13:58.170Z,83.91
2018-03-23T11:14:58.176Z,82.91
2018-03-23T11:15:58.185Z,82.53
2018-03-23T11:16:58.178Z,83.20
2018-03-23T11:17:58.185Z,82.53
2018-03-23T11:18:58.185Z,82.59
2018-03-23T11:19:58.190Z,82.30
2018-03-23T11:20:58.198Z,83.73
2018-03-23T11:21:58.755Z,85.45
2018-03-23T11:22:58.198Z,85.06
2018-03-23T11:23:58.197Z,84.78
2018-03-23T11:24:58.324Z,85.06
2018-03-23T11:25:58.193Z,84.88
2018-03-23T11:26:58.208Z,83.73
2018-03-23T11:27:58.211Z,82.35
2018-03-23T11:28:58.218Z,82.92
2018-03-23T11:29:58.226Z,84.16
2018-03-23T11:30:58.203Z,84.16
2018-03-23T11:31:58.220Z,83.84
2018-03-23T11:32:58.222Z,85.36
2018-03-23T11:33:58.220Z,86.88
2018-03-23T11:34:58.225Z,86.69
2018-03-23T11:35:58.229Z,86.65
2018-03-23T11:36:58.229Z,86.94
2018-03-23T11:37:58.241Z,87.51
2018-03-23T11:38:58.225Z,89.13
2018-03-23T11:39:58.225Z,89.98
2018-03-23T11:40:58.233Z,90.65
2018-03-23T11:41:58.243Z,89.56
2018-03-23T11:42:58.259Z,89.94
2018-03-23T11:43:58.239Z,90.42
2018-03-23T11:44:58.249Z,89.56
2018-03-23T11:45:58.256Z,89.65
2018-03-23T11:46:58.256Z,89.08
2018-03-23T11:47:58.262Z,89.84
2018-03-23T11:48:58.523Z,90.22
2018-03-23T11:49:58.260Z,90.94
2018-03-23T11:50:58.329Z,90.46
2018-03-23T11:51:58.268Z,90.65
2018-03-23T11:52:58.351Z,90.75
2018-03-23T11:53:58.270Z,90.70
2018-03-23T11:54:58.273Z,90.56
2018-03-23T11:55:58.270Z,90.03
2018-03-23T11:56:58.279Z,90.32
2018-03-23T11:57:58.296Z,91.27
2018-03-23T11:58:58.280Z,90.61
2018-03-23T11:59:58.285Z,91.27
2018-03-23T12:00:58.270Z,90.56
2018-03-23T12:01:58.282Z,90.75
2018-03-23T12:02:58.282Z,90.56
2018-03-23T12:03:58.282Z,89.13
2018-03-23T12:04:58.289Z,89.51
2018-03-23T12:05:58.307Z,89.61
2018-03-23T12:06:58.294Z,89.41
2018-03-23T12:07:58.302Z,89.61
2018-03-23T12:08:58.299Z,89.79
2018-03-23T12:09:58.306Z,89.79
2018-03-23T12:10:58.300Z,88.84
2018-03-23T12:11:58.304Z,89.03
2018-03-23T12:12:58.298Z,88.18
2018-03-23T12:13:58.322Z,88.75
2018-03-23T12:14:58.306Z,88.84
2018-03-23T12:15:58.335Z,88.37
2018-03-23T12:16:58.322Z,87.79
2018-03-23T12:17:58.315Z,89.22
2018-03-23T12:18:58.321Z,88.65
2018-03-23T12:19:58.348Z,88.03
2018-03-23T12:20:58.321Z,87.93
2018-03-23T12:21:58.312Z,87.84
2018-03-23T12:22:58.363Z,87.36
2018-03-23T12:23:58.316Z,87.70
2018-03-23T12:24:58.332Z,88.75
2018-03-23T12:25:58.336Z,88.65
2018-03-23T12:26:58.335Z,88.18
2018-03-23T12:27:58.342Z,89.13
2018-03-23T12:28:58.340Z,88.46
2018-03-23T12:29:59.273Z,88.42
2018-03-23T12:30:58.347Z,89.41
2018-03-23T12:31:58.355Z,90.36
2018-03-23T12:32:58.345Z,89.51
2018-03-23T12:33:59.278Z,89.51
2018-03-23T12:34:58.401Z,89.51
2018-03-23T12:35:58.339Z,88.79
2018-03-23T12:36:58.359Z,88.79
2018-03-23T12:37:58.389Z,88.23
2018-03-23T12:38:58.358Z,87.85
2018-03-23T12:39:58.353Z,87.75
2018-03-23T12:40:58.361Z,88.70
2018-03-23T12:41:58.364Z,88.23
2018-03-23T12:42:58.367Z,88.70
2018-03-23T12:43:58.378Z,87.85
2018-03-23T12:44:58.370Z,88.04
2018-03-23T12:45:58.384Z,88.04
2018-03-23T12:46:59.282Z,87.51
2018-03-23T12:47:58.384Z,88.08
2018-03-23T12:48:59.394Z,86.55
2018-03-23T12:49:58.397Z,87.13
2018-03-23T12:50:58.404Z,86.84
2018-03-23T12:51:58.375Z,87.13
2018-03-23T12:52:58.386Z,86.94
2018-03-23T12:53:58.390Z,87.51